Time;durP1;ratioP1;P1;durP2;ratioP2;P2;SDS_P1;SDS_P2;PMS_P1;PMS_P2;Temp;Humidity;BMP_temperature;BMP_pressure;BME280_temperature;BME280_humidity;BME280_pressure;Samples;Min_cycle;Max_cycle;Signal;HPM_P1;HPM_P2
2022/07/23 00:03:05;;;;;;;6.00;5.60;;;26.00;75.20;;;;;;10506034;28;20248;-79
2022/07/23 00:08:08;;;;;;;7.63;7.03;;;26.00;75.40;;;;;;10500714;28;20606;-77
2022/07/23 00:13:11;;;;;;;6.60;6.20;;;26.00;75.00;;;;;;10497504;28;20281;-77
2022/07/23 00:18:13;;;;;;;6.13;5.83;;;25.90;74.80;;;;;;10495686;28;20676;-77
2022/07/23 00:23:15;;;;;;;6.40;6.00;;;25.90;75.20;;;;;;10491495;28;20196;-78
2022/07/23 00:28:19;;;;;;;6.50;6.00;;;25.80;75.00;;;;;;10489308;28;20300;-77
2022/07/23 00:33:21;;;;;;;6.30;5.80;;;25.80;74.80;;;;;;10474188;28;20745;-78
2022/07/23 00:38:23;;;;;;;6.53;6.10;;;25.80;74.70;;;;;;10495711;28;20559;-78
2022/07/23 00:43:27;;;;;;;7.70;6.03;;;25.80;75.10;;;;;;10484964;28;20728;-79
2022/07/23 00:48:29;;;;;;;6.47;6.07;;;25.50;84.00;;;;;;10487280;28;20673;-77
2022/07/23 00:53:31;;;;;;;6.67;6.27;;;25.10;86.40;;;;;;10493130;28;20207;-79
2022/07/23 00:58:36;;;;;;;6.17;5.77;;;24.60;86.50;;;;;;10501408;22;20637;-79
2022/07/23 01:03:38;;;;;;;6.60;6.10;;;24.30;87.50;;;;;;10451109;28;20229;-78
2022/07/23 01:08:40;;;;;;;6.23;5.73;;;24.30;89.30;;;;;;10460552;28;20228;-79
2022/07/23 01:13:45;;;;;;;6.33;5.93;;;24.40;86.50;;;;;;10460291;28;20293;-78
2022/07/23 01:18:47;;;;;;;6.20;5.80;;;24.40;86.70;;;;;;10474970;28;20292;-79
2022/07/23 01:23:50;;;;;;;6.50;6.00;;;24.50;85.60;;;;;;10459804;28;20205;-79
2022/07/23 01:28:52;;;;;;;6.00;5.60;;;24.60;85.70;;;;;;10458494;28;20221;-80
2022/07/23 01:33:55;;;;;;;6.20;5.80;;;24.60;84.70;;;;;;10462781;28;20618;-80
2022/07/23 01:38:58;;;;;;;6.63;6.23;;;24.60;84.80;;;;;;10465491;28;20235;-79
2022/07/23 01:44:01;;;;;;;6.50;6.10;;;24.60;82.90;;;;;;10458662;28;20256;-79
2022/07/23 01:49:04;;;;;;;5.83;5.50;;;24.60;83.40;;;;;;10459542;28;20225;-78
2022/07/23 01:54:27;;;;;;;6.60;6.20;;;24.70;84.70;;;;;;10471276;28;20188;-78
2022/07/23 01:59:29;;;;;;;6.13;5.63;;;24.70;85.40;;;;;;10450928;28;20233;-78
2022/07/23 02:04:36;;;;;;;6.90;6.50;;;24.70;86.50;;;;;;10450802;28;20250;-77
2022/07/23 02:09:39;;;;;;;6.50;6.10;;;24.60;84.40;;;;;;10461060;28;20239;-77
2022/07/23 02:14:42;;;;;;;6.30;5.90;;;24.60;83.40;;;;;;10445570;28;20292;-78
2022/07/23 02:19:44;;;;;;;6.73;6.20;;;24.60;82.10;;;;;;10451957;28;20761;-77
2022/07/23 02:24:47;;;;;;;6.60;6.00;;;24.60;86.20;;;;;;10427947;28;20581;-78
2022/07/23 02:29:50;;;;;;;6.20;5.80;;;24.60;84.30;;;;;;10447824;28;20221;-78
2022/07/23 02:34:52;;;;;;;7.03;6.43;;;24.50;84.90;;;;;;10452361;28;20209;-78
2022/07/23 02:39:57;;;;;;;6.10;5.70;;;24.50;87.10;;;;;;10434884;28;20213;-78
2022/07/23 02:45:00;;;;;;;7.03;6.33;;;24.40;85.10;;;;;;10449301;28;20587;-78
2022/07/23 02:50:03;;;;;;;6.23;5.73;;;24.30;85.20;;;;;;10451511;28;20233;-79
2022/07/23 02:55:08;;;;;;;6.47;6.07;;;24.20;85.10;;;;;;10432316;28;20251;-79
2022/07/23 03:00:11;;;;;;;7.20;6.53;;;24.20;84.90;;;;;;10455917;28;20225;-77
2022/07/23 03:05:14;;;;;;;6.23;5.80;;;24.10;84.30;;;;;;10431394;28;20197;-77
2022/07/23 03:10:20;;;;;;;7.20;6.70;;;24.10;85.30;;;;;;10476247;28;20224;-77
2022/07/23 03:15:22;;;;;;;6.20;5.80;;;24.10;85.00;;;;;;10452554;28;20201;-79
2022/07/23 03:20:24;;;;;;;6.20;5.77;;;24.10;86.00;;;;;;10455299;28;20554;-77
2022/07/23 03:25:28;;;;;;;6.60;6.10;;;24.10;86.10;;;;;;10439343;28;20698;-77
2022/07/23 03:30:30;;;;;;;7.03;6.53;;;24.20;84.70;;;;;;10470186;28;20221;-77
2022/07/23 03:35:32;;;;;;;7.43;7.00;;;24.20;85.10;;;;;;10448309;28;20207;-77
2022/07/23 03:40:48;;;;;;;7.60;6.17;;;24.20;85.40;;;;;;10455650;28;20243;-78
2022/07/23 03:45:51;;;;;;;7.20;6.70;;;24.00;86.50;;;;;;10455225;28;20604;-79
2022/07/23 03:50:53;;;;;;;7.17;6.67;;;24.00;86.20;;;;;;10452409;28;20277;-79
2022/07/23 03:55:56;;;;;;;6.07;5.70;;;24.00;86.50;;;;;;10437456;28;20205;-78
2022/07/23 04:00:59;;;;;;;7.53;7.13;;;23.90;87.60;;;;;;10452899;28;20239;-79
2022/07/23 04:06:01;;;;;;;7.27;6.77;;;23.80;86.40;;;;;;10471715;28;20219;-78
2022/07/23 04:11:07;;;;;;;7.40;6.90;;;23.80;86.30;;;;;;10454069;28;20279;-78
2022/07/23 04:16:09;;;;;;;7.70;7.00;;;23.80;86.70;;;;;;10456622;28;20681;-79
2022/07/23 04:21:11;;;;;;;7.30;6.70;;;23.80;86.40;;;;;;10458124;28;20684;-80
2022/07/23 04:26:15;;;;;;;7.70;7.13;;;23.80;86.30;;;;;;10457261;28;20216;-79
2022/07/23 04:31:17;;;;;;;7.07;6.57;;;23.90;85.40;;;;;;10436698;28;20221;-78
2022/07/23 04:36:20;;;;;;;8.03;7.33;;;24.00;84.60;;;;;;10454641;28;20224;-79
2022/07/23 04:41:24;;;;;;;7.87;7.30;;;24.00;86.90;;;;;;10453651;28;20244;-80
2022/07/23 04:46:26;;;;;;;7.53;6.83;;;24.20;86.70;;;;;;10455492;28;20263;-80
2022/07/23 04:51:28;;;;;;;7.87;7.37;;;24.20;85.70;;;;;;10455483;28;20577;-79
2022/07/23 04:56:32;;;;;;;7.90;7.30;;;24.30;87.60;;;;;;10437411;28;20208;-78
2022/07/23 05:01:34;;;;;;;8.07;7.57;;;24.30;85.80;;;;;;10456969;28;20248;-79
2022/07/23 05:06:37;;;;;;;7.17;6.77;;;24.40;87.60;;;;;;10446904;28;20245;-80
2022/07/23 05:11:40;;;;;;;7.67;7.17;;;24.50;84.50;;;;;;10447083;28;20221;-80
2022/07/23 05:16:43;;;;;;;7.30;6.80;;;24.60;85.40;;;;;;10459311;28;20197;-80
2022/07/23 05:21:51;;;;;;;6.70;6.30;;;24.70;85.60;;;;;;10457901;28;20649;-79
2022/07/23 05:26:55;;;;;;;7.70;7.10;;;24.70;84.80;;;;;;10440884;28;20217;-80
2022/07/23 05:31:58;;;;;;;7.13;6.70;;;24.70;83.20;;;;;;10459159;28;20197;-80
2022/07/23 05:37:00;;;;;;;8.37;7.67;;;24.70;83.20;;;;;;10442366;28;20217;-80
2022/07/23 05:42:04;;;;;;;6.07;5.57;;;24.80;83.40;;;;;;10440424;28;20254;-80
2022/07/23 05:47:06;;;;;;;8.20;7.70;;;25.00;83.10;;;;;;10452089;28;20217;-80
2022/07/23 05:52:09;;;;;;;6.83;6.40;;;25.10;82.80;;;;;;10455927;28;20207;-81
2022/07/23 05:57:31;;;;;;;7.00;6.60;;;25.10;83.30;;;;;;10469132;28;20235;-80
2022/07/23 06:02:33;;;;;;;7.40;7.00;;;25.20;83.90;;;;;;10458827;28;20201;-81
2022/07/23 06:07:36;;;;;;;7.50;7.00;;;25.20;82.80;;;;;;10456810;28;20251;-81
2022/07/23 06:12:40;;;;;;;8.73;8.00;;;25.20;82.80;;;;;;10458295;28;20211;-81
2022/07/23 06:17:43;;;;;;;7.70;7.10;;;25.30;84.80;;;;;;10458918;28;20711;-80
2022/07/23 06:22:45;;;;;;;6.97;6.47;;;25.30;83.00;;;;;;10459734;28;20197;-81
2022/07/23 06:27:49;;;;;;;7.77;7.27;;;25.40;83.60;;;;;;10479692;28;20248;-81
2022/07/23 06:32:51;;;;;;;7.37;6.87;;;25.60;84.10;;;;;;10459884;28;20258;-80
2022/07/23 06:37:53;;;;;;;8.30;7.70;;;25.80;84.40;;;;;;10460179;28;20217;-80
2022/07/23 06:42:58;;;;;;;7.50;7.00;;;26.00;82.40;;;;;;10464431;28;20239;-81
2022/07/23 06:48:03;;;;;;;7.10;6.47;;;26.00;81.40;;;;;;10444301;28;20771;-80
2022/07/23 06:53:05;;;;;;;7.70;7.20;;;26.20;80.30;;;;;;10459261;28;20201;-79
2022/07/23 06:58:09;;;;;;;7.83;7.30;;;26.30;79.80;;;;;;10483850;22;20220;-77
2022/07/23 07:03:12;;;;;;;7.93;7.33;;;26.30;78.90;;;;;;10498617;28;20580;-76
2022/07/23 07:08:14;;;;;;;8.60;7.90;;;26.30;78.20;;;;;;10508958;28;20605;-76
2022/07/23 07:13:17;;;;;;;7.67;7.00;;;26.30;81.10;;;;;;10499875;28;20513;-76
2022/07/23 07:18:19;;;;;;;7.00;6.50;;;26.30;78.30;;;;;;10499701;28;20307;-76
2022/07/23 07:23:21;;;;;;;6.63;6.17;;;26.30;76.80;;;;;;10506685;28;20666;-80
2022/07/23 07:28:25;;;;;;;7.70;7.20;;;26.30;77.30;;;;;;10507053;28;20220;-80
2022/07/23 07:33:27;;;;;;;7.80;7.20;;;26.10;76.30;;;;;;10509068;28;20235;-79
2022/07/23 07:38:29;;;;;;;7.90;7.23;;;25.90;78.00;;;;;;10504158;28;20224;-80
2022/07/23 07:43:33;;;;;;;7.70;7.20;;;25.70;81.60;;;;;;10507383;28;20259;-80
2022/07/23 07:48:35;;;;;;;6.90;6.40;;;25.60;85.80;;;;;;10507359;28;20228;-80
2022/07/23 07:53:37;;;;;;;7.83;7.23;;;25.80;83.80;;;;;;10505663;28;20280;-79
2022/07/23 07:58:40;;;;;;;7.30;6.70;;;26.20;81.90;;;;;;10505883;28;20270;-79
2022/07/23 08:03:42;;;;;;;7.70;6.60;;;26.60;80.60;;;;;;10505482;28;20208;-80
2022/07/23 08:08:44;;;;;;;7.03;6.47;;;26.70;80.20;;;;;;10514594;28;20232;-80
2022/07/23 08:13:49;;;;;;;7.13;6.63;;;27.10;77.90;;;;;;10506174;28;20193;-78
2022/07/23 08:18:51;;;;;;;7.73;7.13;;;27.40;77.70;;;;;;10504973;28;20213;-80
2022/07/23 08:23:53;;;;;;;7.20;6.70;;;27.70;76.50;;;;;;10503571;28;20656;-80
2022/07/23 08:28:56;;;;;;;5.97;5.60;;;27.80;75.70;;;;;;10504256;28;20776;-80
2022/07/23 08:33:58;;;;;;;6.90;6.40;;;27.50;75.60;;;;;;10504482;28;20208;-80
2022/07/23 08:39:02;;;;;;;7.67;7.17;;;27.20;76.00;;;;;;10502044;28;20240;-78
2022/07/23 08:44:08;;;;;;;8.30;7.70;;;26.90;76.00;;;;;;10498562;28;20204;-78
2022/07/23 08:49:12;;;;;;;8.30;7.80;;;26.80;76.90;;;;;;10500175;28;20688;-79
2022/07/23 08:54:14;;;;;;;7.37;6.87;;;26.80;76.00;;;;;;10503886;28;20208;-80
2022/07/23 08:59:17;;;;;;;7.60;7.10;;;27.10;78.20;;;;;;10503589;28;20719;-78
2022/07/23 09:04:19;;;;;;;8.20;7.60;;;27.70;75.60;;;;;;10501890;28;20288;-80
2022/07/23 09:09:22;;;;;;;7.67;7.07;;;28.40;72.60;;;;;;10501734;28;20251;-80
2022/07/23 09:14:39;;;;;;;7.43;7.00;;;29.00;70.40;;;;;;10503263;28;20319;-80
2022/07/23 09:19:42;;;;;;;7.83;7.33;;;29.80;67.80;;;;;;10502980;28;20267;-80
2022/07/23 09:25:06;;;;;;;7.37;6.87;;;30.30;67.20;;;;;;10506120;28;20197;-79
2022/07/23 09:30:11;;;;;;;6.67;6.27;;;30.70;65.10;;;;;;10501661;28;20232;-80
2022/07/23 09:35:13;;;;;;;6.23;5.87;;;31.10;64.70;;;;;;10500248;28;20234;-77
2022/07/23 09:40:17;;;;;;;6.47;6.10;;;31.60;63.50;;;;;;10502046;28;20224;-80
2022/07/23 09:45:20;;;;;;;7.10;6.40;;;32.10;60.60;;;;;;10505582;28;20275;-80
2022/07/23 09:50:22;;;;;;;9.30;5.57;;;32.50;61.70;;;;;;10502086;28;20609;-80
2022/07/23 09:55:35;;;;;;;5.33;5.03;;;32.90;58.90;;;;;;10501358;28;20226;-80
2022/07/23 10:00:40;;;;;;;7.17;6.57;;;33.20;58.60;;;;;;10500913;28;20223;-77
2022/07/23 10:05:43;;;;;;;6.50;6.10;;;33.70;57.60;;;;;;10499572;28;20214;-78
2022/07/23 10:11:13;;;;;;;7.07;6.53;;;34.40;56.90;;;;;;10478201;28;20314;-78
2022/07/23 10:16:27;;;;;;;6.40;6.00;;;35.40;56.00;;;;;;10499812;28;20281;-78
2022/07/23 10:21:40;;;;;;;7.20;6.60;;;36.10;54.70;;;;;;10497628;28;20702;-78
2022/07/23 10:26:53;;;;;;;7.27;6.80;;;36.60;53.20;;;;;;10491126;28;20199;-77
2022/07/23 10:32:03;;;;;;;6.73;6.23;;;36.10;54.40;;;;;;10475367;28;20253;-80
2022/07/23 10:37:14;;;;;;;7.20;6.70;;;35.00;54.70;;;;;;10487836;28;20208;-80
2022/07/23 10:42:18;;;;;;;6.03;5.73;;;34.10;56.60;;;;;;10495358;28;20629;-80
2022/07/23 10:47:40;;;;;;;6.40;6.00;;;33.20;56.50;;;;;;10486628;28;20208;-80
2022/07/23 10:52:42;;;;;;;6.63;6.23;;;32.50;56.30;;;;;;10489197;28;20201;-80
2022/07/23 10:57:49;;;;;;;6.43;6.03;;;31.90;56.10;;;;;;10491984;28;20639;-79
2022/07/23 11:02:54;;;;;;;6.20;5.80;;;31.40;56.20;;;;;;10496850;28;20211;-80
2022/07/23 11:08:19;;;;;;;6.73;6.20;;;30.90;58.70;;;;;;10498862;28;20232;-80
2022/07/23 11:13:31;;;;;;;6.90;6.50;;;30.60;59.30;;;;;;10480804;28;20269;-79
2022/07/23 11:19:10;;;;;;;7.17;6.67;;;30.40;59.80;;;;;;10499929;28;20205;-80
2022/07/23 11:24:15;;;;;;;7.23;6.73;;;30.10;59.90;;;;;;10489966;28;20195;-80
2022/07/23 11:29:43;;;;;;;6.87;6.40;;;29.90;60.70;;;;;;10490687;28;20225;-80
2022/07/23 11:34:47;;;;;;;7.20;6.60;;;29.80;62.10;;;;;;10493665;28;20957;-78
2022/07/23 11:39:55;;;;;;;6.97;6.47;;;29.90;63.60;;;;;;10499771;28;20794;-79
2022/07/23 11:44:57;;;;;;;8.27;7.77;;;30.00;63.20;;;;;;10506706;28;20268;-79
2022/07/23 11:50:01;;;;;;;7.50;6.80;;;30.20;63.10;;;;;;10515117;28;20716;-79
2022/07/23 11:55:07;;;;;;;7.70;7.20;;;30.30;62.50;;;;;;10504806;28;20201;-77
2022/07/23 12:00:11;;;;;;;7.77;7.10;;;30.20;63.70;;;;;;10500370;28;20243;-77
2022/07/23 12:05:17;;;;;;;7.00;6.60;;;30.00;63.50;;;;;;10493481;28;20264;-78
2022/07/23 12:10:23;;;;;;;7.60;7.10;;;29.80;63.40;;;;;;10505399;28;20247;-79
2022/07/23 12:15:29;;;;;;;8.03;7.33;;;29.60;64.10;;;;;;10495051;28;20201;-77
2022/07/23 12:20:33;;;;;;;7.30;6.80;;;29.60;63.20;;;;;;10493136;28;20209;-78
2022/07/23 12:25:39;;;;;;;7.07;6.57;;;29.50;64.40;;;;;;10492348;28;20246;-78
2022/07/23 12:30:43;;;;;;;8.20;7.70;;;29.50;65.10;;;;;;10494284;28;20223;-78
2022/07/23 12:35:47;;;;;;;7.43;6.93;;;29.50;64.50;;;;;;10489633;28;20208;-77
2022/07/23 12:40:53;;;;;;;7.50;6.97;;;29.40;63.90;;;;;;10491822;28;20247;-76
2022/07/23 12:45:57;;;;;;;7.77;7.20;;;29.40;63.80;;;;;;10486605;28;20224;-77
2022/07/23 12:51:00;;;;;;;7.70;7.20;;;29.30;64.30;;;;;;10490172;28;20306;-76
2022/07/23 12:56:06;;;;;;;7.87;7.30;;;29.30;64.60;;;;;;10496048;28;20280;-77
2022/07/23 13:01:08;;;;;;;8.13;7.53;;;29.30;64.50;;;;;;10488626;28;20255;-75
2022/07/23 13:06:11;;;;;;;8.10;7.57;;;29.30;64.90;;;;;;10472223;28;20197;-78
2022/07/23 13:11:15;;;;;;;7.30;6.80;;;29.30;66.70;;;;;;10488136;28;20239;-75
2022/07/23 13:16:17;;;;;;;7.77;7.27;;;29.40;63.40;;;;;;10481211;28;20251;-75
2022/07/23 13:21:19;;;;;;;7.30;6.80;;;29.40;64.00;;;;;;10487148;28;20761;-76
2022/07/23 13:26:23;;;;;;;7.53;7.03;;;29.50;62.60;;;;;;10493416;28;20215;-77
2022/07/23 13:31:25;;;;;;;8.60;7.87;;;29.50;62.80;;;;;;10487493;28;20228;-75
2022/07/23 13:36:27;;;;;;;6.83;6.43;;;29.50;61.50;;;;;;10487552;28;20204;-75
2022/07/23 13:41:31;;;;;;;7.43;6.93;;;29.50;62.10;;;;;;10494721;28;20231;-75
2022/07/23 13:46:33;;;;;;;7.90;7.30;;;29.50;62.00;;;;;;10480147;28;20188;-75
2022/07/23 13:51:35;;;;;;;8.33;7.83;;;29.50;62.50;;;;;;10491906;28;20274;-75
2022/07/23 13:56:39;;;;;;;8.23;7.73;;;29.40;64.30;;;;;;10493774;28;20196;-75
2022/07/23 14:01:41;;;;;;;8.77;8.07;;;29.40;62.80;;;;;;10495072;28;20231;-75
2022/07/23 14:06:43;;;;;;;7.80;7.10;;;29.40;62.80;;;;;;10493616;28;20257;-75
2022/07/23 14:11:46;;;;;;;9.20;8.50;;;29.30;64.00;;;;;;10493201;28;20224;-75
2022/07/23 14:16:48;;;;;;;10.00;7.40;;;29.10;64.00;;;;;;10486624;28;20224;-78
2022/07/23 14:21:50;;;;;;;8.50;7.90;;;29.10;64.60;;;;;;10493409;28;20662;-78
2022/07/23 14:26:54;;;;;;;7.70;7.10;;;29.20;63.60;;;;;;10491611;28;20322;-78
2022/07/23 14:31:56;;;;;;;8.30;7.60;;;29.30;62.90;;;;;;10492025;28;20228;-75
2022/07/23 14:36:59;;;;;;;7.57;7.07;;;29.30;62.40;;;;;;10484834;28;20283;-75
2022/07/23 14:42:03;;;;;;;7.57;6.97;;;29.40;62.10;;;;;;10491902;28;20220;-79
2022/07/23 14:47:06;;;;;;;8.70;8.10;;;29.50;60.20;;;;;;10488462;28;20204;-76
2022/07/23 14:52:08;;;;;;;7.67;7.07;;;29.40;61.90;;;;;;10483740;28;20308;-75
2022/07/23 14:57:12;;;;;;;8.80;8.00;;;29.40;61.00;;;;;;10491619;28;20204;-75
2022/07/23 15:02:14;;;;;;;7.77;7.27;;;29.40;59.10;;;;;;10494492;28;20272;-78
2022/07/23 15:07:16;;;;;;;7.63;6.93;;;29.40;59.30;;;;;;10498522;28;20235;-78
2022/07/23 15:12:19;;;;;;;8.80;7.27;;;29.40;58.90;;;;;;10500622;28;20541;-77
2022/07/23 15:17:21;;;;;;;8.50;7.97;;;29.40;59.80;;;;;;10493974;28;20221;-75
2022/07/23 15:22:23;;;;;;;8.43;7.93;;;29.30;60.00;;;;;;10499892;28;20615;-75
2022/07/23 15:27:28;;;;;;;8.47;7.87;;;29.20;59.00;;;;;;10493202;28;20228;-75
2022/07/23 15:32:30;;;;;;;8.50;7.70;;;29.10;60.30;;;;;;10501290;28;20240;-75
2022/07/23 15:37:32;;;;;;;8.17;7.63;;;29.00;61.60;;;;;;10492221;28;20661;-75
2022/07/23 15:42:36;;;;;;;8.70;8.10;;;29.00;61.60;;;;;;10497951;28;20189;-79
2022/07/23 15:47:40;;;;;;;8.27;7.70;;;28.90;61.80;;;;;;10491552;28;20277;-76
2022/07/23 15:52:42;;;;;;;8.43;7.83;;;28.90;61.80;;;;;;10494094;28;20223;-76
2022/07/23 15:57:45;;;;;;;8.37;7.73;;;28.90;62.20;;;;;;10498300;28;20315;-75
2022/07/23 16:02:47;;;;;;;8.00;7.50;;;28.90;60.70;;;;;;10504751;28;20211;-78
2022/07/23 16:07:49;;;;;;;8.33;7.73;;;28.90;61.60;;;;;;10504860;28;20229;-78
2022/07/23 16:12:53;;;;;;;8.83;8.17;;;28.80;62.10;;;;;;10505736;28;20299;-77
2022/07/23 16:17:56;;;;;;;9.40;8.10;;;28.80;62.10;;;;;;10503975;28;20310;-78
2022/07/23 16:22:58;;;;;;;8.87;8.27;;;28.70;62.50;;;;;;10500875;28;20239;-77
2022/07/23 16:28:01;;;;;;;8.80;8.10;;;28.70;62.80;;;;;;10504695;28;20304;-77
2022/07/23 16:33:03;;;;;;;9.40;8.60;;;28.70;62.40;;;;;;10504936;28;20275;-78
2022/07/23 16:38:06;;;;;;;9.53;8.67;;;28.60;60.80;;;;;;10504433;28;20561;-78
2022/07/23 16:43:09;;;;;;;9.53;8.73;;;28.60;62.30;;;;;;10505519;28;20291;-79
2022/07/23 16:48:12;;;;;;;8.80;8.10;;;28.40;63.80;;;;;;10507968;28;20220;-77
2022/07/23 16:53:14;;;;;;;9.87;9.17;;;28.40;64.00;;;;;;10510161;28;20221;-78
2022/07/23 16:58:17;;;;;;;10.27;9.57;;;28.30;65.20;;;;;;10502230;28;20282;-78
2022/07/23 17:03:20;;;;;;;14.20;10.17;;;28.30;65.60;;;;;;10501610;28;20209;-78
2022/07/23 17:08:22;;;;;;;10.50;9.70;;;28.30;65.00;;;;;;10504065;28;20209;-78
2022/07/23 17:13:26;;;;;;;10.20;9.40;;;28.30;66.10;;;;;;10503049;28;20272;-78
2022/07/23 17:18:28;;;;;;;10.17;9.47;;;28.40;67.90;;;;;;10499754;28;20303;-78
2022/07/23 17:23:30;;;;;;;10.57;9.67;;;28.40;67.10;;;;;;10501251;28;20200;-78
2022/07/23 17:28:33;;;;;;;10.27;9.37;;;28.30;67.90;;;;;;10501281;28;20225;-78
2022/07/23 17:33:36;;;;;;;11.00;10.20;;;28.30;67.20;;;;;;10500301;28;20296;-77
2022/07/23 17:38:39;;;;;;;10.00;9.30;;;28.20;67.80;;;;;;10500997;28;20208;-78
2022/07/23 17:43:42;;;;;;;11.70;10.80;;;28.20;68.00;;;;;;10479350;28;20201;-78
2022/07/23 17:48:44;;;;;;;12.03;11.03;;;28.10;68.80;;;;;;10498718;28;20220;-78
2022/07/23 17:53:46;;;;;;;11.17;10.17;;;28.10;68.70;;;;;;10497914;28;20200;-78
2022/07/23 17:58:50;;;;;;;12.07;10.83;;;28.00;69.50;;;;;;10493047;28;20224;-76
2022/07/23 18:03:52;;;;;;;11.87;10.10;;;28.00;69.60;;;;;;10492237;28;20203;-77
2022/07/23 18:08:54;;;;;;;12.93;10.97;;;27.90;70.20;;;;;;10492313;28;20300;-77
2022/07/23 18:13:58;;;;;;;11.37;10.47;;;27.80;70.10;;;;;;10485694;28;20328;-77
2022/07/23 18:19:01;;;;;;;11.33;10.43;;;27.70;72.00;;;;;;10490581;28;20220;-76
2022/07/23 18:24:03;;;;;;;12.23;11.13;;;27.60;72.20;;;;;;10488497;28;20232;-77
2022/07/23 18:29:07;;;;;;;12.00;11.00;;;27.50;72.60;;;;;;10473868;28;20270;-76
2022/07/23 18:34:09;;;;;;;12.10;11.17;;;27.40;72.40;;;;;;10491961;28;20624;-76
2022/07/23 18:39:11;;;;;;;11.43;10.63;;;27.30;73.70;;;;;;10491495;28;20224;-76
2022/07/23 18:44:15;;;;;;;12.33;11.43;;;27.20;75.70;;;;;;10490265;28;20608;-77
2022/07/23 18:49:17;;;;;;;11.40;10.50;;;27.20;73.50;;;;;;10490900;28;20220;-76
2022/07/23 18:54:19;;;;;;;13.03;12.07;;;27.20;73.40;;;;;;10491401;28;20200;-76
2022/07/23 18:59:22;;;;;;;12.97;11.70;;;27.20;73.60;;;;;;10491405;28;20224;-76
2022/07/23 19:04:25;;;;;;;11.53;10.73;;;27.20;74.70;;;;;;10491067;28;20605;-76
2022/07/23 19:09:27;;;;;;;11.73;10.83;;;27.20;77.10;;;;;;10491121;28;20208;-76
2022/07/23 19:14:32;;;;;;;11.57;10.77;;;27.20;75.20;;;;;;10489515;28;20224;-77
2022/07/23 19:19:34;;;;;;;12.43;11.53;;;27.10;78.20;;;;;;10490760;28;20224;-77
2022/07/23 19:24:38;;;;;;;12.20;11.10;;;27.00;77.60;;;;;;10489565;28;20673;-77
2022/07/23 19:29:41;;;;;;;12.40;11.40;;;27.00;77.50;;;;;;10488894;28;20235;-76
2022/07/23 19:34:43;;;;;;;11.10;10.10;;;26.90;75.60;;;;;;10490782;28;20196;-76
2022/07/23 19:39:46;;;;;;;11.67;10.77;;;26.80;75.90;;;;;;10487853;28;20575;-76
2022/07/23 19:44:51;;;;;;;12.30;11.07;;;26.80;76.40;;;;;;10490352;28;20203;-77
2022/07/23 19:49:53;;;;;;;12.10;11.10;;;26.70;76.80;;;;;;10490316;28;20680;-77
2022/07/23 19:54:55;;;;;;;12.00;11.20;;;26.60;77.40;;;;;;10497730;28;20660;-77
2022/07/23 19:59:59;;;;;;;12.70;11.70;;;26.50;77.70;;;;;;10501663;28;20239;-76
2022/07/23 20:05:01;;;;;;;11.80;10.90;;;26.40;77.80;;;;;;10497722;28;20235;-76
2022/07/23 20:10:04;;;;;;;11.30;10.37;;;26.40;78.20;;;;;;10497096;28;20688;-76
2022/07/23 20:15:09;;;;;;;12.07;10.90;;;26.40;78.90;;;;;;10497017;28;20204;-76
2022/07/23 20:20:12;;;;;;;12.40;11.37;;;26.30;79.00;;;;;;10493483;28;20208;-76
2022/07/23 20:25:14;;;;;;;12.63;11.30;;;26.20;78.60;;;;;;10495030;28;20606;-76
2022/07/23 20:30:18;;;;;;;12.00;11.10;;;26.20;78.90;;;;;;10496483;28;20228;-77
2022/07/23 20:35:20;;;;;;;12.40;11.40;;;26.20;78.80;;;;;;10494538;28;20196;-76
2022/07/23 20:40:22;;;;;;;12.17;11.30;;;26.10;79.10;;;;;;10495892;28;20346;-76
2022/07/23 20:45:26;;;;;;;12.23;11.40;;;26.10;79.30;;;;;;10495147;28;20283;-77
2022/07/23 20:50:28;;;;;;;11.07;10.27;;;26.00;79.20;;;;;;10495200;28;20327;-76
2022/07/23 20:55:31;;;;;;;13.73;12.63;;;26.00;79.80;;;;;;10494530;28;20223;-76
2022/07/23 21:00:34;;;;;;;12.40;11.40;;;26.00;79.90;;;;;;10493518;28;20286;-78
2022/07/23 21:05:36;;;;;;;13.03;11.93;;;26.00;80.00;;;;;;10494684;28;20205;-76
2022/07/23 21:10:39;;;;;;;12.23;11.40;;;25.90;80.20;;;;;;10493517;28;20283;-76
2022/07/23 21:15:43;;;;;;;12.50;11.50;;;25.90;80.50;;;;;;10495753;28;20656;-78
2022/07/23 21:26:05;;;;;;;12.20;11.20;;;25.80;81.20;;;;;;10502035;28;20189;-78
2022/07/23 21:31:09;;;;;;;12.73;11.73;;;25.70;81.00;;;;;;10510717;28;20226;-78
2022/07/23 21:36:12;;;;;;;11.60;10.70;;;25.70;81.30;;;;;;10503792;28;20220;-79
2022/07/23 21:41:14;;;;;;;12.33;11.43;;;25.70;81.60;;;;;;10495799;28;20212;-79
2022/07/23 21:46:17;;;;;;;12.43;11.30;;;25.60;81.60;;;;;;10499618;28;20204;-78
2022/07/23 21:51:19;;;;;;;13.00;12.10;;;25.60;81.70;;;;;;10504407;28;20229;-78
2022/07/23 21:56:21;;;;;;;13.13;12.13;;;25.60;81.70;;;;;;10511844;28;20193;-78
2022/07/23 22:01:25;;;;;;;12.10;11.20;;;25.50;81.40;;;;;;10501577;28;20235;-78
2022/07/23 22:06:27;;;;;;;12.30;11.30;;;25.40;82.20;;;;;;10500070;28;20291;-78
2022/07/23 22:11:29;;;;;;;12.93;11.77;;;25.30;81.60;;;;;;10498716;28;20345;-77
2022/07/23 22:16:32;;;;;;;13.13;11.97;;;25.20;81.70;;;;;;10486024;28;20199;-78
2022/07/23 22:21:34;;;;;;;12.47;11.57;;;25.10;82.70;;;;;;10484034;28;20220;-78
2022/07/23 22:26:37;;;;;;;13.10;12.00;;;25.10;82.90;;;;;;10492403;28;20204;-78
2022/07/23 22:31:41;;;;;;;12.70;11.70;;;25.00;82.60;;;;;;10492554;28;20228;-77
2022/07/23 22:36:43;;;;;;;12.20;11.40;;;24.90;83.40;;;;;;10492660;28;20246;-78
2022/07/23 22:41:45;;;;;;;11.43;10.53;;;24.80;82.80;;;;;;10492171;28;20216;-77
2022/07/23 22:46:49;;;;;;;13.27;12.13;;;24.70;83.30;;;;;;10492686;28;20779;-78
2022/07/23 22:51:51;;;;;;;12.10;11.13;;;24.70;83.50;;;;;;10492121;28;20255;-78
2022/07/23 22:56:53;;;;;;;12.50;11.60;;;24.60;83.40;;;;;;10489135;28;20290;-78
2022/07/23 23:01:56;;;;;;;11.90;11.00;;;24.60;84.10;;;;;;10493795;28;20287;-79
2022/07/23 23:06:58;;;;;;;12.70;11.70;;;24.60;83.90;;;;;;10494207;28;20200;-76
2022/07/23 23:12:01;;;;;;;14.07;12.90;;;24.50;84.10;;;;;;10493593;28;20251;-77
2022/07/23 23:17:04;;;;;;;12.40;11.50;;;24.40;85.00;;;;;;10492472;28;20200;-79
2022/07/23 23:22:06;;;;;;;12.37;11.33;;;24.40;84.70;;;;;;10495919;28;20226;-78
2022/07/23 23:27:09;;;;;;;12.73;11.63;;;24.40;86.00;;;;;;10497203;28;20211;-79
2022/07/23 23:32:13;;;;;;;12.00;10.80;;;24.30;85.60;;;;;;10504347;28;20599;-76
2022/07/23 23:37:15;;;;;;;11.67;10.70;;;24.30;86.30;;;;;;10490956;28;20242;-77
2022/07/23 23:42:17;;;;;;;11.83;10.93;;;24.30;86.00;;;;;;10499789;28;20835;-78
2022/07/23 23:47:21;;;;;;;11.73;10.73;;;24.30;85.60;;;;;;10498416;28;20204;-78
2022/07/23 23:52:23;;;;;;;11.30;10.30;;;24.30;84.60;;;;;;10489686;28;20298;-75
2022/07/23 23:57:25;;;;;;;11.53;10.63;;;24.20;85.30;;;;;;10479083;28;20212;-76
